createdAt,value
2022-10-01T00:00:28.917Z,76586.63
2022-10-01T00:02:55.478Z,76580.63
2022-10-01T00:05:22.376Z,76578.63
2022-10-01T00:07:48.778Z,76570.59
2022-10-01T00:10:15.450Z,76572.63
2022-10-01T00:12:46.114Z,76574.63
2022-10-01T00:15:13.721Z,76574.63
2022-10-01T00:17:40.921Z,76570.59
2022-10-01T00:20:13.962Z,76570.59
2022-10-01T00:22:40.811Z,76570.59
2022-10-01T00:25:07.328Z,76568.59
2022-10-01T00:27:33.690Z,76564.59
2022-10-01T00:30:00.061Z,76570.59
2022-10-01T00:32:26.783Z,76560.59
2022-10-01T00:34:53.730Z,76560.59
2022-10-01T00:37:20.790Z,76558.59
2022-10-01T00:39:47.131Z,76558.59
2022-10-01T00:42:18.115Z,76560.59
2022-10-01T00:44:44.791Z,76558.59
2022-10-01T00:47:20.147Z,76556.59
2022-10-01T00:49:48.004Z,76556.59
2022-10-01T00:52:20.878Z,76556.59
2022-10-01T00:54:50.861Z,76558.59
2022-10-01T00:57:18.891Z,76556.59
2022-10-01T00:59:45.890Z,76554.59
2022-10-01T01:02:12.400Z,76556.59
2022-10-01T01:04:40.275Z,76558.59
2022-10-01T01:07:07.177Z,76550.59
2022-10-01T01:09:36.101Z,76550.59
2022-10-01T01:12:05.558Z,76554.59
2022-10-01T01:14:41.993Z,76548.59
2022-10-01T01:17:28.565Z,76554.59
2022-10-01T01:20:04.145Z,76552.59
2022-10-01T01:22:33.252Z,76550.59
2022-10-01T01:25:02.483Z,76548.59
2022-10-01T01:27:34.800Z,76554.59
2022-10-01T01:30:06.137Z,76552.59
2022-10-01T01:32:38.463Z,76554.59
2022-10-01T01:35:07.220Z,76550.59
2022-10-01T01:37:38.014Z,76548.59
2022-10-01T01:40:05.937Z,76550.59
2022-10-01T01:42:37.291Z,76550.59
2022-10-01T01:45:09.909Z,76552.59
2022-10-01T01:47:38.228Z,76550.59
2022-10-01T01:50:04.904Z,76554.59
2022-10-01T01:52:32.665Z,76550.59
2022-10-01T01:54:59.187Z,76542.59
2022-10-01T01:57:26.370Z,76544.59
2022-10-01T01:59:54.112Z,76546.59
2022-10-01T02:02:33.259Z,76546.59
2022-10-01T02:05:02.022Z,76540.59
2022-10-01T02:07:34.627Z,76542.59
2022-10-01T02:10:21.959Z,76544.59
2022-10-01T02:12:57.986Z,76542.59
2022-10-01T02:15:43.016Z,76546.59
2022-10-01T02:18:18.436Z,76540.59
2022-10-01T02:21:03.054Z,76542.59
2022-10-01T02:23:33.808Z,76538.59
2022-10-01T02:26:03.578Z,76540.59
2022-10-01T02:28:32.055Z,76538.59
2022-10-01T02:30:59.858Z,76534.59
2022-10-01T02:33:30.053Z,76532.59
2022-10-01T02:35:58.675Z,76534.59
2022-10-01T02:38:26.133Z,76534.59
2022-10-01T02:40:54.167Z,76542.59
2022-10-01T02:43:23.556Z,76546.59
2022-10-01T02:45:55.460Z,76546.59
2022-10-01T02:48:21.903Z,76542.59
2022-10-01T02:50:51.317Z,76542.59
2022-10-01T02:53:21.261Z,76542.59
2022-10-01T02:55:48.672Z,76536.59
2022-10-01T02:58:15.044Z,76540.59
2022-10-01T03:00:41.380Z,76536.59
2022-10-01T03:03:07.725Z,76534.59
2022-10-01T03:05:34.099Z,76526.59
2022-10-01T03:08:00.563Z,76522.56
2022-10-01T03:10:26.894Z,76512.56
2022-10-01T03:12:53.249Z,76502.56
2022-10-01T03:15:19.700Z,76498.56
2022-10-01T03:17:46.453Z,76494.56
2022-10-01T03:20:13.019Z,76488.56
2022-10-01T03:22:39.405Z,76486.56
2022-10-01T03:25:05.869Z,76482.53
2022-10-01T03:27:32.266Z,76490.56
2022-10-01T03:29:58.616Z,76494.56
2022-10-01T03:32:24.968Z,76484.56
2022-10-01T03:34:51.343Z,76486.56
2022-10-01T03:37:17.687Z,76484.56
2022-10-01T03:39:44.073Z,76486.56
2022-10-01T03:42:10.549Z,76478.53
2022-10-01T03:44:37.222Z,76482.53
2022-10-01T03:47:03.659Z,76488.56
2022-10-01T03:49:30.026Z,76486.56
2022-10-01T03:51:56.603Z,76482.53
2022-10-01T03:54:22.975Z,76478.53
2022-10-01T03:56:49.570Z,76472.53
2022-10-01T03:59:15.964Z,76472.53
2022-10-01T04:01:42.431Z,76470.53
2022-10-01T04:04:09.085Z,76470.53
2022-10-01T04:06:35.647Z,76466.53
2022-10-01T04:09:02.040Z,76464.53
2022-10-01T04:11:28.456Z,76462.53
2022-10-01T04:13:55.290Z,76458.53
2022-10-01T04:16:21.704Z,76458.53
2022-10-01T04:18:48.105Z,76454.53
2022-10-01T04:21:15.581Z,76454.53
2022-10-01T04:23:42.236Z,76454.53
2022-10-01T04:26:08.691Z,76450.53
2022-10-01T04:28:35.207Z,76452.53
2022-10-01T04:31:20.410Z,76450.53
2022-10-01T04:33:46.830Z,76448.53
2022-10-01T04:36:13.159Z,76450.53
2022-10-01T04:38:39.516Z,76450.53
2022-10-01T04:41:05.907Z,76450.53
2022-10-01T04:43:32.304Z,76448.53
2022-10-01T04:45:58.864Z,76442.53
2022-10-01T04:48:25.232Z,76442.53
2022-10-01T04:50:51.606Z,76446.53
2022-10-01T04:53:17.956Z,76442.53
2022-10-01T04:55:44.343Z,76448.53
2022-10-01T04:58:10.696Z,76446.53
2022-10-01T05:00:37.107Z,76442.53
2022-10-01T05:03:03.620Z,76440.53
2022-10-01T05:05:32.959Z,76438.53
2022-10-01T05:07:59.283Z,76436.53
2022-10-01T05:10:26.173Z,76434.50
2022-10-01T05:12:52.607Z,76434.50
2022-10-01T05:15:19.265Z,76432.50
2022-10-01T05:17:46.672Z,76432.50
2022-10-01T05:20:17.535Z,76434.50
2022-10-01T05:22:44.626Z,76438.53
2022-10-01T05:25:11.003Z,76440.53
2022-10-01T05:27:37.990Z,76440.53
2022-10-01T05:30:05.339Z,76430.50
2022-10-01T05:32:31.822Z,76432.50
2022-10-01T05:34:58.248Z,76428.50
2022-10-01T05:37:24.595Z,76432.50
2022-10-01T05:39:50.965Z,76424.50
2022-10-01T05:42:17.260Z,76422.50
2022-10-01T05:44:46.402Z,76422.50
2022-10-01T05:47:13.747Z,76414.50
2022-10-01T05:49:43.839Z,76414.50
2022-10-01T05:52:10.857Z,76418.50
2022-10-01T05:54:37.364Z,76410.50
2022-10-01T05:57:04.048Z,76406.50
2022-10-01T05:59:32.052Z,76404.50
2022-10-01T06:01:58.744Z,76406.50
2022-10-01T06:04:25.236Z,76398.50
2022-10-01T06:06:52.997Z,76398.50
2022-10-01T06:09:19.354Z,76404.50
2022-10-01T06:11:46.966Z,76402.50
2022-10-01T06:14:13.316Z,76394.50
2022-10-01T06:16:39.687Z,76392.50
2022-10-01T06:19:06.248Z,76388.47
2022-10-01T06:21:32.823Z,76386.47
2022-10-01T06:23:59.437Z,76386.47
2022-10-01T06:26:25.808Z,76380.47
2022-10-01T06:28:52.662Z,76378.47
2022-10-01T06:31:19.201Z,76378.47
2022-10-01T06:33:45.618Z,76372.47
2022-10-01T06:36:12.045Z,76370.47
2022-10-01T06:38:38.381Z,76362.47
2022-10-01T06:41:08.354Z,76362.47
2022-10-01T06:43:34.737Z,76364.47
2022-10-01T06:46:02.448Z,76358.47
2022-10-01T06:48:31.334Z,76360.47
2022-10-01T06:50:58.180Z,76362.47
2022-10-01T06:53:24.581Z,76358.47
2022-10-01T06:55:51.196Z,76358.47
2022-10-01T06:58:18.481Z,76354.47
2022-10-01T07:00:45.469Z,76352.47
2022-10-01T07:03:14.315Z,76348.47
2022-10-01T07:05:40.833Z,76354.47
2022-10-01T07:08:07.523Z,76350.47
2022-10-01T07:10:34.914Z,76350.47
2022-10-01T07:13:11.187Z,76344.47
2022-10-01T07:15:37.927Z,76346.47
2022-10-01T07:18:04.584Z,76336.44
2022-10-01T07:20:35.412Z,76338.44
2022-10-01T07:23:02.243Z,76326.44
2022-10-01T07:25:29.190Z,76330.44
2022-10-01T07:27:58.953Z,76330.44
2022-10-01T07:30:25.628Z,76326.44
2022-10-01T07:32:51.990Z,76326.44
2022-10-01T07:35:20.405Z,76322.44
2022-10-01T07:37:47.757Z,76326.44
2022-10-01T07:40:16.414Z,76326.44
2022-10-01T07:42:43.301Z,76322.44
2022-10-01T07:45:10.066Z,76318.44
2022-10-01T07:47:36.512Z,76318.44
2022-10-01T07:50:03.735Z,76310.44
2022-10-01T07:52:30.093Z,76310.44
2022-10-01T07:54:56.455Z,76306.44
2022-10-01T07:57:23.393Z,76298.44
2022-10-01T07:59:53.564Z,76286.41
2022-10-01T08:02:22.235Z,76274.41
2022-10-01T08:05:07.343Z,76264.41
2022-10-01T08:07:33.820Z,76254.41
2022-10-01T08:10:00.173Z,76250.41
2022-10-01T08:12:30.477Z,76246.41
2022-10-01T08:14:56.856Z,76248.41
2022-10-01T08:17:27.266Z,76242.38
2022-10-01T08:19:55.608Z,76242.38
2022-10-01T08:22:21.947Z,76244.38
2022-10-01T08:24:48.299Z,76242.38
2022-10-01T08:27:14.859Z,76236.38
2022-10-01T08:29:43.263Z,76238.38
2022-10-01T08:32:10.513Z,76238.38
2022-10-01T08:34:37.195Z,76242.38
2022-10-01T08:37:03.550Z,76246.41
2022-10-01T08:39:29.900Z,76242.38
2022-10-01T08:42:15.381Z,76242.38
2022-10-01T08:44:43.920Z,76242.38
2022-10-01T08:47:16.947Z,76242.38
2022-10-01T08:49:47.182Z,76240.38
2022-10-01T08:52:24.861Z,76242.38
2022-10-01T08:54:53.931Z,76246.41
2022-10-01T08:57:47.088Z,76234.38
2022-10-01T09:00:15.677Z,76232.38
2022-10-01T09:02:43.449Z,76230.38
2022-10-01T09:05:22.020Z,76230.38
2022-10-01T09:07:54.200Z,76226.38
2022-10-01T09:10:25.308Z,76226.38
2022-10-01T09:12:58.623Z,76226.38
2022-10-01T09:15:48.006Z,76226.38
2022-10-01T09:18:30.986Z,76222.38
2022-10-01T09:21:00.419Z,76222.38
2022-10-01T09:23:28.639Z,76210.38
2022-10-01T09:25:57.196Z,76210.38
2022-10-01T09:28:27.618Z,76208.38
2022-10-01T09:31:06.420Z,76194.34
2022-10-01T09:33:42.003Z,76198.38
2022-10-01T09:36:17.549Z,76192.34
2022-10-01T09:38:46.958Z,76188.34
2022-10-01T09:41:14.753Z,76186.34
2022-10-01T09:43:42.522Z,76182.34
2022-10-01T09:46:14.881Z,76186.34
2022-10-01T09:49:07.272Z,76184.34
2022-10-01T09:51:45.316Z,76182.34
2022-10-01T09:54:23.794Z,76178.34
2022-10-01T09:56:58.219Z,76182.34
2022-10-01T09:59:29.736Z,76174.34
2022-10-01T10:01:58.952Z,76176.34
2022-10-01T10:04:25.363Z,76166.34
2022-10-01T10:06:59.052Z,76166.34
2022-10-01T10:09:29.441Z,76156.34
2022-10-01T10:11:56.801Z,76154.34
2022-10-01T10:14:31.793Z,76152.34
2022-10-01T10:17:04.695Z,76156.34
2022-10-01T10:19:32.363Z,76158.34
2022-10-01T10:22:10.103Z,76146.34
2022-10-01T10:24:36.641Z,76142.31
2022-10-01T10:27:20.180Z,76146.34
2022-10-01T10:29:46.813Z,76138.31
2022-10-01T10:32:26.541Z,76138.31
2022-10-01T10:34:59.784Z,76136.31
2022-10-01T10:40:02.458Z,76142.31
2022-10-01T10:42:29.016Z,76134.31
2022-10-01T10:44:57.632Z,76142.31
2022-10-01T10:47:24.503Z,76146.34
2022-10-01T10:49:58.847Z,76142.31
2022-10-01T10:52:30.508Z,76146.34
2022-10-01T10:54:58.150Z,76136.31
2022-10-01T10:57:26.068Z,76134.31
2022-10-01T10:59:55.586Z,76118.31
2022-10-01T11:02:23.825Z,76130.31
2022-10-01T11:04:50.914Z,76134.31
2022-10-01T11:07:21.806Z,76126.31
2022-10-01T11:09:48.194Z,76126.31
2022-10-01T11:12:26.031Z,76118.31
2022-10-01T11:15:06.911Z,76120.31
2022-10-01T11:17:45.556Z,76118.31
2022-10-01T11:20:18.657Z,76120.31
2022-10-01T11:22:54.931Z,76118.31
2022-10-01T11:25:41.550Z,76116.31
2022-10-01T11:28:08.036Z,76126.31
2022-10-01T11:30:46.458Z,76126.31
2022-10-01T11:33:30.760Z,76122.31
2022-10-01T11:36:03.152Z,76110.31
2022-10-01T11:38:29.498Z,76114.31
2022-10-01T11:41:19.190Z,76110.31
2022-10-01T11:43:56.578Z,76108.31
2022-10-01T11:46:27.407Z,76110.31
2022-10-01T11:49:15.468Z,76106.31
2022-10-01T11:51:45.042Z,76102.31
2022-10-01T11:54:14.806Z,76094.31
2022-10-01T11:57:02.316Z,76098.31
2022-10-01T11:59:36.762Z,76098.31
2022-10-01T12:02:03.225Z,76094.31
2022-10-01T12:04:45.958Z,76096.31
2022-10-01T12:07:16.271Z,76090.28
2022-10-01T12:09:55.677Z,76090.28
2022-10-01T12:12:32.096Z,76086.28
2022-10-01T12:15:06.507Z,76092.31
2022-10-01T12:17:41.438Z,76096.31
2022-10-01T12:20:15.003Z,76086.28
2022-10-01T12:22:42.136Z,76090.28
2022-10-01T12:25:13.082Z,76078.28
2022-10-01T12:27:50.024Z,76086.28
2022-10-01T12:30:19.467Z,76086.28
2022-10-01T12:33:06.275Z,76084.28
2022-10-01T12:35:56.951Z,76088.28
2022-10-01T12:38:29.627Z,76082.28
2022-10-01T12:41:14.744Z,76074.28
2022-10-01T12:44:06.280Z,76084.28
2022-10-01T12:46:44.823Z,76080.28
2022-10-01T12:49:11.244Z,76078.28
2022-10-01T12:51:52.508Z,76082.28
2022-10-01T12:54:36.396Z,76078.28
2022-10-01T12:57:12.290Z,76078.28
2022-10-01T12:59:49.944Z,76082.28
2022-10-01T13:02:16.507Z,76080.28
2022-10-01T13:04:56.618Z,76080.28
2022-10-01T13:07:22.950Z,76084.28
2022-10-01T13:09:52.303Z,76078.28
2022-10-01T13:12:22.139Z,76090.28
2022-10-01T13:14:48.738Z,76082.28
2022-10-01T13:17:23.770Z,76078.28
2022-10-01T13:20:01.405Z,76070.28
2022-10-01T13:22:27.770Z,76070.28
2022-10-01T13:25:12.831Z,76070.28
2022-10-01T13:27:43.602Z,76070.28
2022-10-01T13:30:18.557Z,76066.28
2022-10-01T13:32:53.800Z,76070.28
2022-10-01T13:35:23.944Z,76072.28
2022-10-01T13:37:50.421Z,76074.28
2022-10-01T13:40:43.198Z,76074.28
2022-10-01T13:43:18.844Z,76072.28
2022-10-01T13:45:46.204Z,76058.28
2022-10-01T13:48:15.363Z,76068.28
2022-10-01T13:50:55.349Z,76070.28
2022-10-01T13:53:23.232Z,76074.28
2022-10-01T13:55:50.688Z,76074.28
2022-10-01T13:58:29.853Z,76074.28
2022-10-01T14:00:57.594Z,76076.28
2022-10-01T14:03:42.747Z,76074.28
2022-10-01T14:06:15.798Z,76072.28
2022-10-01T14:08:49.105Z,76072.28
2022-10-01T14:11:41.861Z,76062.28
2022-10-01T14:14:29.776Z,76066.28
2022-10-01T14:16:56.965Z,76062.28
2022-10-01T14:19:24.771Z,76058.28
2022-10-01T14:22:16.776Z,76064.28
2022-10-01T14:24:43.424Z,76066.28
2022-10-01T14:27:09.758Z,76062.28
2022-10-01T14:30:08.635Z,76062.28
2022-10-01T14:32:53.842Z,76068.28
2022-10-01T14:35:30.483Z,76066.28
2022-10-01T14:38:02.282Z,76054.28
2022-10-01T14:40:38.239Z,76054.28
2022-10-01T14:43:15.897Z,76058.28
2022-10-01T14:46:01.115Z,76058.28
2022-10-01T14:48:31.516Z,76058.28
2022-10-01T14:51:02.243Z,76058.28
2022-10-01T14:53:30.211Z,76058.28
2022-10-01T14:55:59.214Z,76058.28
2022-10-01T14:58:33.910Z,76062.28
2022-10-01T15:01:00.906Z,76058.28
2022-10-01T15:03:27.704Z,76060.28
2022-10-01T15:06:03.116Z,76052.28
2022-10-01T15:08:40.436Z,76056.28
2022-10-01T15:11:08.997Z,76046.28
2022-10-01T15:13:37.994Z,76050.28
2022-10-01T15:16:05.118Z,76054.28
2022-10-01T15:18:32.167Z,76052.28
2022-10-01T15:21:05.577Z,76058.28
2022-10-01T15:23:33.463Z,76058.28
2022-10-01T15:26:00.946Z,76062.28
2022-10-01T15:28:34.500Z,76056.28
2022-10-01T15:31:03.558Z,76058.28
2022-10-01T15:33:31.716Z,76064.28
2022-10-01T15:35:59.417Z,76056.28
2022-10-01T15:38:26.884Z,76060.28
2022-10-01T15:41:13.943Z,76062.28
2022-10-01T15:43:46.405Z,76062.28
2022-10-01T15:46:30.207Z,76068.28
2022-10-01T15:49:14.884Z,76070.28
2022-10-01T15:52:10.529Z,76068.28
2022-10-01T15:54:37.969Z,76064.28
2022-10-01T15:57:06.172Z,76068.28
2022-10-01T15:59:33.441Z,76070.28
2022-10-01T16:02:00.149Z,76066.28
2022-10-01T16:04:26.646Z,76066.28
2022-10-01T16:06:53.065Z,76070.28
2022-10-01T16:09:22.499Z,76072.28
2022-10-01T16:12:07.973Z,76074.28
2022-10-01T16:14:43.803Z,76078.28
2022-10-01T16:17:19.646Z,76074.28
2022-10-01T16:19:50.238Z,76072.28
2022-10-01T16:22:28.163Z,76072.28
2022-10-01T16:24:56.347Z,76070.28
2022-10-01T16:27:35.230Z,76074.28
2022-10-01T16:30:09.013Z,76074.28
2022-10-01T16:32:36.234Z,76078.28
2022-10-01T16:35:16.446Z,76080.28
2022-10-01T16:37:43.361Z,76082.28
2022-10-01T16:40:15.207Z,76090.28
2022-10-01T16:42:42.595Z,76086.28
2022-10-01T16:45:15.834Z,76090.28
2022-10-01T16:47:42.428Z,76094.31
2022-10-01T16:50:13.645Z,76094.31
2022-10-01T16:52:40.528Z,76094.31
2022-10-01T16:55:17.182Z,76098.31
2022-10-01T16:57:43.511Z,76098.31
2022-10-01T17:00:10.867Z,76106.31
2022-10-01T17:02:37.190Z,76102.31
2022-10-01T17:05:03.675Z,76100.31
2022-10-01T17:07:30.024Z,76104.31
2022-10-01T17:09:56.367Z,76106.31
2022-10-01T17:12:22.749Z,76106.31
2022-10-01T17:14:49.076Z,76110.31
2022-10-01T17:17:15.421Z,76106.31
2022-10-01T17:19:41.793Z,76110.31
2022-10-01T17:22:08.340Z,76110.31
2022-10-01T17:24:34.835Z,76110.31
2022-10-01T17:27:01.268Z,76114.31
2022-10-01T17:29:27.643Z,76114.31
2022-10-01T17:31:53.979Z,76114.31
2022-10-01T17:34:21.227Z,76118.31
2022-10-01T17:36:47.582Z,76114.31
2022-10-01T17:39:13.944Z,76108.31
2022-10-01T17:41:40.323Z,76104.31
2022-10-01T17:44:06.667Z,76104.31
2022-10-01T17:46:33.336Z,76102.31
2022-10-01T17:48:59.902Z,76110.31
2022-10-01T17:51:26.731Z,76110.31
2022-10-01T17:53:54.963Z,76110.31
2022-10-01T17:56:21.331Z,76106.31
2022-10-01T17:58:47.743Z,76110.31
2022-10-01T18:01:15.898Z,76110.31
2022-10-01T18:03:42.551Z,76106.31
2022-10-01T18:06:11.859Z,76100.31
2022-10-01T18:08:54.095Z,76098.31
2022-10-01T18:11:22.140Z,76088.28
2022-10-01T18:13:50.388Z,76088.28
2022-10-01T18:16:19.206Z,76088.28
2022-10-01T18:21:32.798Z,76090.28
2022-10-01T18:24:03.977Z,76086.28
2022-10-01T18:26:31.347Z,76090.28
2022-10-01T18:28:57.688Z,76090.28
2022-10-01T18:31:28.386Z,76096.31
2022-10-01T18:33:56.983Z,76100.31
2022-10-01T18:36:42.120Z,76102.31
2022-10-01T18:39:19.463Z,76106.31
2022-10-01T18:41:45.921Z,76110.31
2022-10-01T18:44:16.777Z,76114.31
2022-10-01T18:46:51.652Z,76118.31
2022-10-01T18:49:23.747Z,76126.31
2022-10-01T18:52:01.445Z,76126.31
2022-10-01T18:54:37.572Z,76134.31
2022-10-01T18:57:11.753Z,76138.31
2022-10-01T18:59:41.220Z,76144.34
2022-10-01T19:02:07.656Z,76150.34
2022-10-01T19:04:46.972Z,76150.34
2022-10-01T19:07:16.332Z,76152.34
2022-10-01T19:09:48.915Z,76162.34
2022-10-01T19:12:27.006Z,76168.34
2022-10-01T19:15:12.846Z,76174.34
2022-10-01T19:17:45.288Z,76176.34
2022-10-01T19:20:23.773Z,76174.34
2022-10-01T19:22:58.931Z,76184.34
2022-10-01T19:25:30.938Z,76192.34
2022-10-01T19:28:03.582Z,76194.34
2022-10-01T19:30:43.814Z,76190.34
2022-10-01T19:33:11.134Z,76198.38
2022-10-01T19:35:56.212Z,76194.34
2022-10-01T19:38:38.465Z,76204.38
2022-10-01T19:41:20.550Z,76218.38
2022-10-01T19:43:53.069Z,76216.38
2022-10-01T19:46:23.067Z,76214.38
2022-10-01T19:49:04.847Z,76222.38
2022-10-01T19:51:36.288Z,76226.38
2022-10-01T19:54:03.346Z,76232.38
2022-10-01T19:56:31.141Z,76234.38
2022-10-01T19:59:07.909Z,76240.38
2022-10-01T20:01:38.060Z,76246.41
2022-10-01T20:04:07.596Z,76246.41
2022-10-01T20:06:37.275Z,76250.41
2022-10-01T20:09:27.154Z,76256.41
2022-10-01T20:11:59.389Z,76258.41
2022-10-01T20:15:04.515Z,76262.41
2022-10-01T20:17:37.808Z,76272.41
2022-10-01T20:20:07.102Z,76274.41
2022-10-01T20:22:33.503Z,76276.41
2022-10-01T20:25:07.789Z,76280.41
2022-10-01T20:27:36.956Z,76282.41
2022-10-01T20:30:08.796Z,76282.41
2022-10-01T20:32:54.198Z,76286.41
2022-10-01T20:35:24.830Z,76294.41
2022-10-01T20:37:55.678Z,76296.41
2022-10-01T20:40:25.157Z,76302.44
2022-10-01T20:42:56.140Z,76302.44
2022-10-01T20:45:24.440Z,76302.44
2022-10-01T20:48:17.012Z,76306.44
2022-10-01T20:50:50.407Z,76312.44
2022-10-01T20:53:24.916Z,76314.44
2022-10-01T20:55:54.879Z,76314.44
2022-10-01T20:58:27.836Z,76318.44
2022-10-01T21:00:57.917Z,76320.44
2022-10-01T21:03:29.444Z,76322.44
2022-10-01T21:06:14.423Z,76330.44
2022-10-01T21:08:57.294Z,76332.44
2022-10-01T21:11:28.149Z,76338.44
2022-10-01T21:14:12.733Z,76342.44
2022-10-01T21:16:51.287Z,76354.47
2022-10-01T21:19:42.373Z,76354.47
2022-10-01T21:22:11.760Z,76356.47
2022-10-01T21:24:38.076Z,76356.47
2022-10-01T21:27:21.823Z,76362.47
2022-10-01T21:30:06.647Z,76360.47
2022-10-01T21:32:51.752Z,76366.47
2022-10-01T21:35:21.267Z,76376.47
2022-10-01T21:37:56.085Z,76374.47
2022-10-01T21:40:32.442Z,76384.47
2022-10-01T21:43:08.297Z,76390.47
2022-10-01T21:45:41.963Z,76392.50
2022-10-01T21:48:28.584Z,76390.47
2022-10-01T21:51:07.290Z,76394.50
2022-10-01T21:53:42.829Z,76398.50
2022-10-01T21:56:21.346Z,76404.50
2022-10-01T21:58:54.571Z,76400.50
2022-10-01T22:01:39.928Z,76414.50
2022-10-01T22:04:17.215Z,76416.50
2022-10-01T22:06:48.867Z,76414.50
2022-10-01T22:09:38.010Z,76422.50
2022-10-01T22:12:06.081Z,76422.50
2022-10-01T22:14:32.585Z,76426.50
2022-10-01T22:17:05.611Z,76430.50
2022-10-01T22:19:37.683Z,76434.50
2022-10-01T22:22:12.932Z,76434.50
2022-10-01T22:24:43.656Z,76440.53
2022-10-01T22:27:13.012Z,76450.53
2022-10-01T22:29:49.394Z,76446.53
2022-10-01T22:32:18.835Z,76450.53
2022-10-01T22:34:48.998Z,76460.53
2022-10-01T22:37:24.518Z,76460.53
2022-10-01T22:39:55.751Z,76466.53
2022-10-01T22:42:26.976Z,76466.53
2022-10-01T22:44:53.379Z,76470.53
2022-10-01T22:47:22.736Z,76472.53
2022-10-01T22:49:52.117Z,76482.53
2022-10-01T22:52:24.563Z,76482.53
2022-10-01T22:54:50.888Z,76482.53
2022-10-01T22:57:36.368Z,76488.56
2022-10-01T23:00:08.441Z,76490.56
2022-10-01T23:02:34.813Z,76492.56
2022-10-01T23:05:11.027Z,76498.56
2022-10-01T23:07:47.578Z,76498.56
2022-10-01T23:10:20.612Z,76506.56
2022-10-01T23:13:10.052Z,76510.56
2022-10-01T23:15:41.540Z,76510.56
2022-10-01T23:18:20.141Z,76510.56
2022-10-01T23:20:56.986Z,76514.56
2022-10-01T23:23:26.388Z,76520.56
2022-10-01T23:25:58.535Z,76518.56
2022-10-01T23:28:30.884Z,76522.56
2022-10-01T23:31:02.017Z,76530.59
2022-10-01T23:33:43.391Z,76530.59
2022-10-01T23:36:27.870Z,76534.59
2022-10-01T23:39:23.630Z,76534.59
2022-10-01T23:42:08.842Z,76538.59
2022-10-01T23:44:58.294Z,76542.59
2022-10-01T23:47:32.624Z,76548.59
2022-10-01T23:50:00.718Z,76546.59
2022-10-01T23:52:34.657Z,76548.59
2022-10-01T23:55:23.947Z,76546.59
2022-10-01T23:58:00.949Z,76550.59
